Time;durP1;ratioP1;P1;durP2;ratioP2;P2;SDS_P1;SDS_P2;PMS_P1;PMS_P2;Temp;Humidity;BMP_temperature;BMP_pressure;BME280_temperature;BME280_humidity;BME280_pressure;Samples;Min_cycle;Max_cycle;Signal;HPM_P1;HPM_P2
2023/02/22 00:01:46;;;;;;;1.37;1.27;;;;;;;3.00;100.00;100227.56;5113679;28;20444;-50
2023/02/22 00:04:14;;;;;;;1.03;1.03;;;;;;;3.08;100.00;100223.19;5113919;28;20888;-50
2023/02/22 00:06:41;;;;;;;4.03;2.10;;;;;;;2.70;100.00;100217.88;5113175;28;20444;-50
2023/02/22 00:09:09;;;;;;;7.03;4.57;;;;;;;2.77;100.00;100208.28;5113732;28;20440;-51
2023/02/22 00:11:37;;;;;;;2.43;2.23;;;;;;;2.88;100.00;100209.19;5113505;28;20462;-51
2023/02/22 00:14:04;;;;;;;0.77;0.77;;;;;;;2.92;100.00;100217.06;5113421;28;21192;-50
2023/02/22 00:16:30;;;;;;;9.43;1.80;;;;;;;3.03;100.00;100218.81;5113382;28;20443;-51
2023/02/22 00:18:57;;;;;;;3.40;1.20;;;;;;;2.90;100.00;100213.56;5113462;28;20448;-50
2023/02/22 00:21:23;;;;;;;1.07;1.07;;;;;;;2.77;100.00;100217.03;5113206;28;20444;-50
2023/02/22 00:23:53;;;;;;;1.77;1.77;;;;;;;2.77;100.00;100208.28;5095047;28;20451;-50
2023/02/22 00:26:22;;;;;;;4.57;2.47;;;;;;;2.74;100.00;100210.88;5113000;28;20452;-50
2023/02/22 00:28:52;;;;;;;16.53;1.70;;;;;;;2.84;100.00;100208.28;5113245;28;20479;-50
2023/02/22 00:31:20;;;;;;;1.67;1.57;;;;;;;2.85;100.00;100198.66;5113090;28;20491;-50
2023/02/22 00:33:47;;;;;;;0.77;0.77;;;;;;;2.76;100.00;100204.78;5106359;28;20548;-50
2023/02/22 00:36:13;;;;;;;3.80;2.43;;;;;;;2.70;100.00;100206.53;5117587;28;20451;-50
2023/02/22 00:38:40;;;;;;;1.57;1.47;;;;;;;2.58;100.00;100204.75;5120167;28;20446;-51
2023/02/22 00:41:07;;;;;;;3.07;2.87;;;;;;;2.46;100.00;100212.56;5101552;28;20443;-51
2023/02/22 00:43:34;;;;;;;2.63;1.27;;;;;;;2.53;100.00;100207.38;5119940;28;20451;-51
2023/02/22 00:46:01;;;;;;;1.13;0.97;;;;;;;2.66;100.00;100201.28;5119616;28;20912;-51
2023/02/22 00:48:27;;;;;;;3.40;1.93;;;;;;;2.62;100.00;100206.53;5119856;28;21086;-51
2023/02/22 00:50:54;;;;;;;5.37;3.03;;;;;;;2.57;100.00;100206.50;5120210;28;20444;-51
2023/02/22 00:53:22;;;;;;;1.90;1.80;;;;;;;2.54;100.00;100201.25;5120653;28;20439;-51
2023/02/22 00:55:49;;;;;;;4.20;1.20;;;;;;;2.46;100.00;100200.34;5119820;28;20904;-50
2023/02/22 00:58:15;;;;;;;2.20;1.90;;;;;;;2.50;100.00;100202.13;5119768;28;20443;-51
2023/02/22 01:00:42;;;;;;;3.43;1.73;;;;;;;2.48;100.00;100198.63;5119814;28;20455;-50
2023/02/22 01:03:11;;;;;;;1.17;1.07;;;;;;;2.48;100.00;100196.00;5119677;28;20518;-51
2023/02/22 01:05:38;;;;;;;1.03;1.03;;;;;;;2.41;100.00;100188.09;5101814;28;20845;-50
2023/02/22 01:08:06;;;;;;;2.43;2.13;;;;;;;2.27;100.00;100186.31;5119667;28;20483;-51
2023/02/22 01:10:33;;;;;;;1.10;1.10;;;;;;;2.31;100.00;100184.56;5119769;28;20451;-50
2023/02/22 01:13:03;;;;;;;1.33;1.23;;;;;;;2.12;100.00;100188.00;5119646;28;20963;-51
2023/02/22 01:15:30;;;;;;;2.03;0.90;;;;;;;2.35;100.00;100181.97;5119581;28;20520;-51
2023/02/22 01:17:58;;;;;;;1.20;1.20;;;;;;;2.23;100.00;100181.06;5119475;28;20527;-50
2023/02/22 01:20:26;;;;;;;8.03;1.43;;;;;;;2.13;100.00;100180.13;5119735;28;20447;-50
2023/02/22 01:22:56;;;;;;;2.53;2.33;;;;;;;2.02;100.00;100171.34;5119764;28;20450;-50
2023/02/22 01:25:25;;;;;;;1.43;1.43;;;;;;;2.10;100.00;100174.88;5119744;28;20968;-51
2023/02/22 01:27:52;;;;;;;2.23;1.47;;;;;;;2.13;100.00;100171.41;5101350;28;20506;-50
2023/02/22 01:30:26;;;;;;;0.87;0.87;;;;;;;2.13;100.00;100168.78;5119408;28;20444;-51
2023/02/22 01:32:53;;;;;;;4.60;1.37;;;;;;;2.04;100.00;100162.63;5119511;28;20451;-50
2023/02/22 01:35:23;;;;;;;1.90;1.80;;;;;;;2.03;100.00;100166.13;5119369;28;20840;-50
2023/02/22 01:37:50;;;;;;;2.30;2.00;;;;;;;2.10;100.00;100166.16;5119262;28;20858;-51
2023/02/22 01:40:21;;;;;;;2.40;1.63;;;;;;;1.96;100.00;100160.84;5119411;28;20452;-50
2023/02/22 01:42:52;;;;;;;2.00;1.90;;;;;;;1.83;100.00;100167.78;5119285;28;20446;-50
2023/02/22 01:45:33;;;;;;;0.83;0.80;;;;;;;1.94;100.00;100166.09;5119202;28;20577;-50
2023/02/22 01:48:07;;;;;;;1.10;1.10;;;;;;;1.93;100.00;100171.34;5115833;28;20488;-50
2023/02/22 01:50:51;;;;;;;1.87;1.77;;;;;;;2.06;100.00;100163.53;5115945;28;20497;-50
2023/02/22 01:53:19;;;;;;;1.13;0.97;;;;;;;2.23;100.00;100167.94;5097859;28;20944;-51
2023/02/22 01:55:46;;;;;;;3.03;1.00;;;;;;;2.05;100.00;100172.22;5102787;28;20468;-50
2023/02/22 01:58:15;;;;;;;1.77;1.63;;;;;;;2.27;100.00;100169.69;5116028;28;20444;-51
2023/02/22 02:00:43;;;;;;;1.10;0.90;;;;;;;2.27;100.00;100164.44;5116019;28;20466;-50
2023/02/22 02:03:16;;;;;;;2.53;2.33;;;;;;;2.26;100.00;100160.09;5115820;28;20476;-50
2023/02/22 02:05:43;;;;;;;1.30;0.77;;;;;;;2.34;100.00;100164.50;5115846;28;20460;-50
2023/02/22 02:08:26;;;;;;;3.00;2.90;;;;;;;2.32;100.00;100160.97;5115742;28;20509;-50
2023/02/22 02:10:55;;;;;;;10.63;1.00;;;;;;;2.23;100.00;100158.34;5115823;28;20448;-51
2023/02/22 02:13:21;;;;;;;4.20;1.87;;;;;;;2.23;100.00;100154.84;5115776;28;20440;-50
2023/02/22 02:15:51;;;;;;;1.17;0.77;;;;;;;2.19;100.00;100145.19;5115504;28;20518;-50
2023/02/22 02:18:18;;;;;;;9.90;2.53;;;;;;;2.19;100.00;100150.44;5115393;28;20501;-51
2023/02/22 02:20:53;;;;;;;1.10;1.10;;;;;;;2.14;100.00;100146.94;5115772;28;20448;-50
2023/02/22 02:23:53;;;;;;;3.10;2.90;;;;;;;2.20;100.00;100141.72;5115591;28;20439;-50
2023/02/22 02:26:37;;;;;;;2.20;2.10;;;;;;;2.29;100.00;100142.59;5115399;28;20796;-50
2023/02/22 02:29:27;;;;;;;0.87;0.87;;;;;;;2.33;100.00;100136.50;5115458;28;20484;-50
2023/02/22 02:32:21;;;;;;;0.30;0.30;;;;;;;2.28;100.00;100139.97;5115198;28;21005;-50
2023/02/22 02:35:02;;;;;;;2.20;2.07;;;;;;;2.20;100.00;100136.47;5102588;28;20517;-50
2023/02/22 02:37:34;;;;;;;2.63;1.17;;;;;;;2.12;100.00;100136.44;5115499;28;20517;-51
2023/02/22 02:40:10;;;;;;;4.13;1.20;;;;;;;2.02;100.00;100137.28;5115289;28;20455;-51
2023/02/22 02:42:52;;;;;;;3.13;3.03;;;;;;;2.04;100.00;100133.78;5115163;28;20452;-51
2023/02/22 02:45:28;;;;;;;2.07;1.97;;;;;;;1.95;100.00;100138.13;5114765;28;20482;-50
2023/02/22 02:47:57;;;;;;;1.87;1.80;;;;;;;2.02;100.00;100137.28;5115195;28;20497;-51
2023/02/22 02:50:30;;;;;;;1.50;1.47;;;;;;;1.87;100.00;100137.22;5115152;28;20451;-51
2023/02/22 02:53:00;;;;;;;0.87;0.70;;;;;;;1.97;100.00;100142.50;5115159;28;20494;-51
2023/02/22 02:55:30;;;;;;;1.80;1.70;;;;;;;2.01;100.00;100139.03;5114643;28;20521;-51
2023/02/22 02:57:58;;;;;;;2.40;1.73;;;;;;;1.88;100.00;100128.50;5114977;28;20515;-50
2023/02/22 03:00:30;;;;;;;1.37;1.37;;;;;;;1.92;100.00;100125.00;5114946;28;20448;-50
2023/02/22 03:03:16;;;;;;;5.30;2.00;;;;;;;1.95;100.00;100123.28;5114854;28;20444;-50
2023/02/22 03:05:55;;;;;;;1.40;1.20;;;;;;;1.94;100.00;100126.78;5094303;28;20469;-50
2023/02/22 03:08:42;;;;;;;1.10;1.00;;;;;;;1.75;100.00;100123.19;5111045;28;20486;-50
2023/02/22 03:11:22;;;;;;;4.50;1.50;;;;;;;1.87;100.00;100111.88;5114805;28;20444;-51
2023/02/22 03:13:55;;;;;;;7.23;1.40;;;;;;;1.88;100.00;100116.25;5102435;28;20444;-50
2023/02/22 03:16:46;;;;;;;3.80;1.17;;;;;;;1.72;100.00;100119.69;5114598;28;20447;-50
2023/02/22 03:19:27;;;;;;;11.10;3.40;;;;;;;1.75;100.00;100115.34;5102386;28;20448;-50
2023/02/22 03:21:57;;;;;;;2.10;2.00;;;;;;;1.65;100.00;100112.69;5101742;28;20810;-51
2023/02/22 03:24:30;;;;;;;1.37;0.87;;;;;;;1.56;100.00;100108.28;5096174;28;20464;-50
2023/02/22 03:27:08;;;;;;;1.43;1.43;;;;;;;1.63;100.00;100103.94;5114135;28;20933;-50
2023/02/22 03:29:39;;;;;;;1.17;0.87;;;;;;;1.76;100.00;100100.50;5114409;28;20519;-50
2023/02/22 03:32:11;;;;;;;4.27;1.03;;;;;;;1.75;100.00;100101.34;5114653;28;20494;-50
2023/02/22 03:34:44;;;;;;;2.13;2.03;;;;;;;1.78;100.00;100099.66;5114817;28;20464;-50
2023/02/22 03:37:16;;;;;;;2.33;2.23;;;;;;;1.58;100.00;100106.53;5114164;28;20444;-51
2023/02/22 03:39:45;;;;;;;1.37;1.37;;;;;;;1.54;100.00;100109.16;5114138;28;20489;-51
2023/02/22 03:42:23;;;;;;;1.83;1.67;;;;;;;1.57;100.00;100107.41;5114102;28;20444;-50
2023/02/22 03:44:53;;;;;;;0.80;0.80;;;;;;;1.44;100.00;100105.59;5114327;28;20471;-49
2023/02/22 03:47:24;;;;;;;3.20;1.70;;;;;;;1.48;100.00;100100.38;5114049;28;20501;-49
2023/02/22 03:49:52;;;;;;;3.30;1.13;;;;;;;1.55;100.00;100103.03;5113796;28;20532;-49
2023/02/22 03:52:22;;;;;;;2.23;1.70;;;;;;;1.58;100.00;100095.19;5113891;28;20455;-50
2023/02/22 03:54:52;;;;;;;0.80;0.70;;;;;;;1.66;100.00;100091.75;5113710;28;20802;-49
2023/02/22 03:57:30;;;;;;;1.07;0.97;;;;;;;1.51;100.00;100089.06;5113769;28;20444;-49
2023/02/22 03:59:57;;;;;;;2.37;1.80;;;;;;;1.46;100.00;100089.00;5113716;28;20436;-49
2023/02/22 04:02:23;;;;;;;5.27;1.53;;;;;;;1.54;100.00;100093.44;5113856;28;20448;-49
2023/02/22 04:04:50;;;;;;;1.27;1.17;;;;;;;1.56;100.00;100089.94;5113799;28;20468;-50
2023/02/22 04:07:17;;;;;;;1.57;1.33;;;;;;;1.49;100.00;100096.88;5114018;28;20448;-49
2023/02/22 04:09:43;;;;;;;0.80;0.80;;;;;;;1.58;100.00;100095.19;5113042;28;20731;-50
2023/02/22 04:12:10;;;;;;;1.57;1.30;;;;;;;1.48;100.00;100097.75;5113665;28;20455;-50
2023/02/22 04:14:36;;;;;;;1.60;1.50;;;;;;;1.45;100.00;100094.25;5113248;28;20459;-50
2023/02/22 04:17:03;;;;;;;3.27;2.27;;;;;;;1.58;100.00;100087.31;5113393;28;20455;-50
2023/02/22 04:19:29;;;;;;;0.83;0.83;;;;;;;1.64;100.00;100085.59;5113415;28;20441;-50
2023/02/22 04:21:56;;;;;;;1.80;1.33;;;;;;;1.54;100.00;100082.97;5113456;28;20447;-50
2023/02/22 04:24:22;;;;;;;0.90;0.30;;;;;;;1.42;100.00;100087.25;5113517;28;20517;-49
2023/02/22 04:26:49;;;;;;;7.83;2.30;;;;;;;1.57;100.00;100088.19;5113676;28;20448;-49
2023/02/22 04:29:15;;;;;;;24.97;1.60;;;;;;;1.53;100.00;100078.59;5113223;28;20544;-49
2023/02/22 04:31:42;;;;;;;2.50;1.70;;;;;;;1.70;100.00;100077.78;5113047;28;20456;-49
2023/02/22 04:34:08;;;;;;;1.03;1.03;;;;;;;1.73;100.00;100082.16;5113270;28;20529;-50
2023/02/22 04:36:34;;;;;;;1.03;1.00;;;;;;;1.60;100.00;100070.75;5113230;28;21041;-50
2023/02/22 04:39:01;;;;;;;1.33;1.23;;;;;;;1.52;100.00;100072.47;5113169;28;20444;-50
2023/02/22 04:41:27;;;;;;;1.50;1.07;;;;;;;1.52;100.00;100076.84;5113185;28;21015;-50
2023/02/22 04:43:54;;;;;;;10.07;2.10;;;;;;;1.43;100.00;100080.28;5112884;28;20546;-51
2023/02/22 04:46:20;;;;;;;0.83;0.83;;;;;;;1.55;100.00;100069.88;5113486;28;20948;-50
2023/02/22 04:48:47;;;;;;;1.80;1.70;;;;;;;1.44;100.00;100068.94;5113039;28;20496;-50
2023/02/22 04:51:14;;;;;;;1.10;1.10;;;;;;;1.39;100.00;100078.53;5113240;28;20502;-50
2023/02/22 04:53:41;;;;;;;1.30;1.30;;;;;;;1.36;100.00;100074.13;5113650;28;20451;-50
2023/02/22 04:56:07;;;;;;;1.27;1.17;;;;;;;1.30;100.00;100068.88;5113164;28;20503;-50
2023/02/22 04:58:34;;;;;;;8.50;2.80;;;;;;;1.24;100.00;100066.22;5113273;28;20476;-50
2023/02/22 05:01:00;;;;;;;1.90;1.80;;;;;;;1.32;100.00;100066.25;5113743;28;20455;-50
2023/02/22 05:03:26;;;;;;;3.50;3.23;;;;;;;1.26;100.00;100063.63;5114633;28;20533;-50
2023/02/22 05:05:53;;;;;;;1.33;1.30;;;;;;;1.23;100.00;100066.19;5113368;28;20464;-50
2023/02/22 05:08:19;;;;;;;1.97;1.10;;;;;;;1.17;100.00;100065.31;5114406;28;20492;-50
2023/02/22 05:10:46;;;;;;;1.37;1.27;;;;;;;1.28;100.00;100072.34;5114520;28;20948;-50
2023/02/22 05:13:12;;;;;;;2.00;1.60;;;;;;;1.25;100.00;100064.50;5113052;28;20470;-50
2023/02/22 05:15:39;;;;;;;2.37;2.00;;;;;;;1.30;100.00;100062.75;5113125;28;20503;-51
2023/02/22 05:18:05;;;;;;;2.30;2.20;;;;;;;1.31;100.00;100064.50;5113023;28;20451;-50
2023/02/22 05:20:33;;;;;;;0.77;0.77;;;;;;;1.21;100.00;100060.09;5113545;28;20450;-50
2023/02/22 05:23:01;;;;;;;9.00;2.57;;;;;;;1.15;100.00;100068.78;5114800;28;20454;-50
2023/02/22 05:25:28;;;;;;;2.73;1.00;;;;;;;1.08;100.00;100056.53;5116437;28;20963;-50
2023/02/22 05:27:57;;;;;;;3.00;2.20;;;;;;;1.07;100.00;100049.53;5116447;28;20448;-50
2023/02/22 05:30:27;;;;;;;3.50;1.47;;;;;;;1.18;100.00;100053.97;5116743;28;20444;-50
2023/02/22 05:32:53;;;;;;;0.87;0.87;;;;;;;1.01;100.00;100054.75;5116621;28;20480;-50
2023/02/22 05:35:21;;;;;;;0.77;0.77;;;;;;;1.07;100.00;100047.78;5116341;28;20470;-50
2023/02/22 05:37:49;;;;;;;7.87;2.63;;;;;;;1.13;100.00;100053.06;5116094;28;20455;-50
2023/02/22 05:40:21;;;;;;;4.37;1.13;;;;;;;1.03;100.00;100050.41;5116082;28;20876;-50
2023/02/22 05:42:49;;;;;;;1.43;1.33;;;;;;;1.15;100.00;100046.09;5116236;28;20872;-50
2023/02/22 05:45:18;;;;;;;0.60;0.60;;;;;;;1.03;100.00;100046.03;5115941;28;20487;-50
2023/02/22 05:47:45;;;;;;;2.73;0.63;;;;;;;1.02;100.00;100046.91;5116030;28;20454;-50
2023/02/22 05:50:13;;;;;;;0.90;0.57;;;;;;;0.96;100.00;100041.66;5115733;28;20992;-50
2023/02/22 05:52:40;;;;;;;1.27;1.27;;;;;;;1.00;100.00;100040.78;5115938;28;20529;-50
2023/02/22 05:55:09;;;;;;;3.60;1.87;;;;;;;0.98;100.00;100047.75;5115698;28;20460;-50
2023/02/22 05:57:35;;;;;;;37.57;2.20;;;;;;;0.94;100.00;100045.97;5115856;28;20476;-50
2023/02/22 06:00:05;;;;;;;0.60;0.60;;;;;;;0.92;100.00;100041.59;5115569;28;20450;-50
2023/02/22 06:02:32;;;;;;;1.03;0.93;;;;;;;0.93;100.00;100044.22;5115497;28;20459;-50
2023/02/22 06:04:59;;;;;;;1.97;1.80;;;;;;;0.92;100.00;100049.44;5115621;28;20475;-50
2023/02/22 06:07:26;;;;;;;0.80;0.70;;;;;;;1.03;100.00;100058.25;5115548;28;20606;-50
2023/02/22 06:09:52;;;;;;;1.07;1.00;;;;;;;0.99;100.00;100051.25;5115537;28;20484;-50
2023/02/22 06:12:19;;;;;;;7.53;0.97;;;;;;;1.18;100.00;100055.72;5115617;28;20448;-50
2023/02/22 06:14:45;;;;;;;1.33;1.20;;;;;;;0.96;100.00;100059.97;5115471;28;20521;-50
2023/02/22 06:17:13;;;;;;;2.63;2.00;;;;;;;1.02;100.00;100054.75;5115423;28;20441;-50
2023/02/22 06:19:40;;;;;;;3.27;1.97;;;;;;;1.10;100.00;100052.19;5115332;28;20833;-50
2023/02/22 06:22:07;;;;;;;1.77;1.63;;;;;;;1.18;100.00;100060.94;5115286;28;20452;-50
2023/02/22 06:24:37;;;;;;;1.37;1.37;;;;;;;1.16;100.00;100062.69;5115211;28;20539;-50
2023/02/22 06:27:03;;;;;;;0.87;0.87;;;;;;;1.13;100.00;100058.31;5115727;28;20444;-50
2023/02/22 06:29:30;;;;;;;0.93;0.93;;;;;;;1.19;100.00;100060.94;5115118;28;20488;-50
2023/02/22 06:31:56;;;;;;;2.60;0.80;;;;;;;1.21;100.00;100065.31;5115145;28;20456;-50
2023/02/22 06:34:23;;;;;;;2.17;1.43;;;;;;;1.12;100.00;100067.03;5110644;28;20480;-50
2023/02/22 06:36:49;;;;;;;0.87;0.87;;;;;;;1.17;100.00;100069.66;5114173;28;20530;-50
2023/02/22 06:39:17;;;;;;;1.30;1.23;;;;;;;1.21;100.00;100066.19;5114924;28;20444;-50
2023/02/22 06:41:45;;;;;;;2.70;0.80;;;;;;;1.30;100.00;100068.00;5115191;28;20513;-50
2023/02/22 06:44:14;;;;;;;0.53;0.53;;;;;;;1.30;100.00;100078.47;5114727;28;20517;-50
2023/02/22 06:46:47;;;;;;;2.47;1.07;;;;;;;1.44;100.00;100084.66;5114724;28;20456;-50
2023/02/22 06:49:13;;;;;;;2.50;0.53;;;;;;;1.58;100.00;100082.09;5096691;28;21098;-50
2023/02/22 06:51:40;;;;;;;1.97;0.63;;;;;;;1.53;100.00;100082.09;5115039;28;20478;-51
2023/02/22 06:54:06;;;;;;;3.50;0.77;;;;;;;1.51;100.00;100086.44;5115003;28;20475;-50
2023/02/22 06:56:33;;;;;;;1.93;1.60;;;;;;;1.53;100.00;100091.69;5114780;28;20547;-50
2023/02/22 06:59:00;;;;;;;0.87;0.83;;;;;;;1.60;100.00;100101.31;5115278;28;20445;-50
2023/02/22 07:01:28;;;;;;;1.30;1.20;;;;;;;1.63;100.00;100093.44;5114478;28;20801;-50
2023/02/22 07:03:54;;;;;;;2.23;2.13;;;;;;;1.62;100.00;100091.69;5114795;28;20454;-50
2023/02/22 07:06:22;;;;;;;3.03;2.20;;;;;;;1.53;100.00;100103.03;5096575;28;20460;-50
2023/02/22 07:08:48;;;;;;;1.90;1.13;;;;;;;1.57;100.00;100098.69;5114655;28;20548;-51
2023/02/22 07:11:15;;;;;;;4.83;1.10;;;;;;;1.64;100.00;100095.19;5114536;28;20460;-50
2023/02/22 07:13:42;;;;;;;5.70;2.70;;;;;;;1.60;100.00;100099.56;5114739;28;20444;-50
2023/02/22 07:16:08;;;;;;;5.67;1.30;;;;;;;1.73;100.00;100097.88;5114439;28;20471;-50
2023/02/22 07:18:35;;;;;;;1.70;1.37;;;;;;;1.78;100.00;100090.88;5114746;28;20560;-50
2023/02/22 07:21:01;;;;;;;0.87;0.87;;;;;;;1.84;100.00;100093.53;5114571;28;20448;-50
2023/02/22 07:23:28;;;;;;;0.87;0.87;;;;;;;1.98;100.00;100086.59;5115622;28;20459;-50
2023/02/22 07:25:54;;;;;;;4.40;0.60;;;;;;;2.02;100.00;100084.84;5115257;28;20464;-50
2023/02/22 07:28:21;;;;;;;1.13;1.13;;;;;;;2.03;100.00;100071.75;5113978;28;20448;-50
2023/02/22 07:30:47;;;;;;;0.30;0.30;;;;;;;2.18;100.00;100078.78;5113657;28;20491;-50
2023/02/22 07:33:14;;;;;;;2.60;1.70;;;;;;;2.44;100.00;100075.31;5096143;28;20768;-50
2023/02/22 07:35:48;;;;;;;0.90;0.90;;;;;;;2.60;100.00;100070.09;5113921;28;20464;-50
2023/02/22 07:38:17;;;;;;;2.87;1.20;;;;;;;2.51;100.00;100079.69;5114035;28;20443;-51
2023/02/22 07:40:44;;;;;;;4.83;2.50;;;;;;;2.63;100.00;100074.47;5113939;28;20446;-50
2023/02/22 07:43:15;;;;;;;4.67;1.77;;;;;;;2.73;100.00;100073.56;5113766;28;20481;-50
2023/02/22 07:45:42;;;;;;;4.40;4.00;;;;;;;2.76;100.00;100081.47;5112686;28;20487;-50
2023/02/22 07:48:11;;;;;;;2.47;2.30;;;;;;;2.78;100.00;100078.81;5096118;28;20538;-50
2023/02/22 07:50:38;;;;;;;1.53;1.43;;;;;;;2.88;100.00;100084.06;5113597;28;20487;-50
2023/02/22 07:53:10;;;;;;;1.37;1.27;;;;;;;3.26;100.00;100088.38;5113975;28;20440;-51
2023/02/22 07:55:37;;;;;;;2.07;1.97;;;;;;;3.34;100.00;100085.72;5113581;28;20466;-51
2023/02/22 07:58:05;;;;;;;1.63;1.53;;;;;;;3.43;100.00;100090.97;5114224;28;20814;-50
2023/02/22 08:00:35;;;;;;;2.77;2.57;;;;;;;3.30;100.00;100091.88;5113948;28;20456;-51
2023/02/22 08:03:05;;;;;;;2.87;0.90;;;;;;;3.43;100.00;100094.47;5113873;28;20444;-51
2023/02/22 08:05:33;;;;;;;3.53;3.33;;;;;;;3.40;100.00;100085.69;5113822;28;20479;-50
2023/02/22 08:07:59;;;;;;;3.13;1.60;;;;;;;3.52;100.00;100094.41;5113599;28;20448;-51
2023/02/22 08:10:26;;;;;;;2.20;2.00;;;;;;;3.53;100.00;100092.66;5113364;28;21094;-50
2023/02/22 08:12:54;;;;;;;1.57;1.50;;;;;;;3.63;100.00;100089.13;5113645;28;20444;-51
2023/02/22 08:15:27;;;;;;;3.10;2.37;;;;;;;3.84;100.00;100094.31;5113332;28;20468;-51
2023/02/22 08:17:55;;;;;;;1.10;0.97;;;;;;;3.82;100.00;100093.44;5113587;28;20539;-50
2023/02/22 08:20:22;;;;;;;1.47;1.37;;;;;;;3.90;100.00;100089.91;5113626;28;20453;-51
2023/02/22 08:22:49;;;;;;;5.77;2.93;;;;;;;3.86;100.00;100097.81;5113353;28;20455;-50
2023/02/22 08:25:17;;;;;;;2.07;1.23;;;;;;;3.98;100.00;100096.88;5113046;28;20460;-50
2023/02/22 08:27:44;;;;;;;6.90;1.60;;;;;;;4.15;100.00;100095.03;5113079;28;20450;-50
2023/02/22 08:30:18;;;;;;;3.67;3.37;;;;;;;4.26;100.00;100088.84;5113083;28;21000;-50
2023/02/22 08:32:45;;;;;;;4.20;2.80;;;;;;;4.29;100.00;100086.19;5112961;28;20480;-51
2023/02/22 08:35:14;;;;;;;2.50;2.30;;;;;;;4.41;100.00;100092.22;5112963;28;20474;-51
2023/02/22 08:37:44;;;;;;;2.70;2.50;;;;;;;4.62;100.00;100088.56;5113215;28;20444;-50
2023/02/22 08:40:12;;;;;;;2.50;2.30;;;;;;;4.74;100.00;100085.81;5113290;28;20435;-51
2023/02/22 08:42:40;;;;;;;2.77;2.57;;;;;;;4.83;100.00;100082.25;5113569;28;20551;-51
2023/02/22 08:45:07;;;;;;;1.60;1.50;;;;;;;5.01;100.00;100089.09;5113003;28;20480;-50
2023/02/22 08:47:33;;;;;;;1.80;1.70;;;;;;;5.32;100.00;100082.63;5112745;28;20444;-50
2023/02/22 08:50:00;;;;;;;1.63;1.53;;;;;;;5.19;100.00;100086.28;5112751;28;20513;-50
2023/02/22 08:52:26;;;;;;;3.00;2.30;;;;;;;5.08;100.00;100085.53;5112962;28;20444;-50
2023/02/22 08:54:52;;;;;;;3.07;2.77;;;;;;;5.34;100.00;100085.25;5113117;28;20472;-50
2023/02/22 08:57:19;;;;;;;2.67;2.57;;;;;;;5.47;100.00;100086.88;5115598;28;20448;-51
2023/02/22 08:59:47;;;;;;;2.60;2.30;;;;;;;5.78;100.00;100091.81;5117083;28;20464;-52
2023/02/22 09:02:16;;;;;;;7.23;1.50;;;;;;;5.85;100.00;100085.53;5116530;28;20454;-51
2023/02/22 09:04:43;;;;;;;3.50;2.97;;;;;;;5.75;100.00;100082.13;5098290;28;20507;-50
2023/02/22 09:07:10;;;;;;;1.77;1.67;;;;;;;5.93;100.00;100073.16;5116572;28;20539;-51
2023/02/22 09:09:36;;;;;;;2.10;1.63;;;;;;;6.01;100.00;100078.31;5116234;28;20490;-51
2023/02/22 09:12:03;;;;;;;2.30;2.20;;;;;;;6.07;100.00;100073.84;5116649;28;20444;-51
2023/02/22 09:14:30;;;;;;;2.07;1.87;;;;;;;6.21;100.00;100077.16;5116421;28;20520;-51
2023/02/22 09:16:56;;;;;;;1.47;1.37;;;;;;;6.18;100.00;100073.72;5116300;28;20452;-51
2023/02/22 09:19:23;;;;;;;1.80;1.70;;;;;;;6.47;100.00;100065.34;5116192;28;20807;-50
2023/02/22 09:21:54;;;;;;;3.60;3.30;;;;;;;6.52;100.00;100064.38;5116268;28;20448;-50
2023/02/22 09:24:21;;;;;;;6.13;3.50;;;;;;;6.43;100.00;100056.59;5116294;28;20474;-50
2023/02/22 09:26:52;;;;;;;20.53;3.90;;;;;;;6.66;100.00;100063.28;5116111;28;20447;-51
2023/02/22 09:29:24;;;;;;;2.30;2.20;;;;;;;6.75;100.00;100060.50;5115907;28;20446;-51
2023/02/22 09:31:53;;;;;;;18.63;3.27;;;;;;;6.74;100.00;100064.91;5116171;28;21118;-50
2023/02/22 09:34:28;;;;;;;8.90;2.90;;;;;;;6.77;100.00;100061.34;5115710;28;20495;-51
2023/02/22 09:36:56;;;;;;;10.30;3.73;;;;;;;7.09;100.00;100058.13;5115968;28;20450;-51
2023/02/22 09:39:23;;;;;;;3.57;2.13;;;;;;;6.94;100.00;100058.41;5115713;28;20762;-50
2023/02/22 09:41:50;;;;;;;13.77;3.97;;;;;;;7.09;100.00;100056.34;5115765;28;20473;-51
2023/02/22 09:44:40;;;;;;;4.40;4.00;;;;;;;7.18;100.00;100055.31;5097426;28;20834;-51
2023/02/22 09:47:16;;;;;;;10.33;4.03;;;;;;;7.48;100.00;100047.69;5115775;28;20440;-51
2023/02/22 09:49:59;;;;;;;4.83;3.43;;;;;;;7.37;100.00;100046.13;5115746;28;20570;-51
2023/02/22 09:52:31;;;;;;;6.07;3.30;;;;;;;7.59;100.00;100048.38;5115379;28;20476;-51
2023/02/22 09:55:24;;;;;;;5.10;4.63;;;;;;;7.66;100.00;100031.44;5115368;28;20999;-52
2023/02/22 09:57:54;;;;;;;2.53;2.33;;;;;;;7.28;100.00;100033.13;5115580;28;20531;-51
2023/02/22 10:00:28;;;;;;;9.43;3.80;;;;;;;7.65;100.00;100041.16;5115360;28;20483;-51
2023/02/22 10:03:05;;;;;;;10.83;3.60;;;;;;;7.87;100.00;100038.94;5115243;28;20524;-51
2023/02/22 10:05:36;;;;;;;13.27;4.37;;;;;;;7.83;100.00;100036.41;5101870;28;20968;-51
2023/02/22 10:08:09;;;;;;;6.07;2.90;;;;;;;8.00;100.00;100037.78;5114464;28;20497;-50
2023/02/22 10:10:38;;;;;;;4.30;3.90;;;;;;;8.16;100.00;100037.41;5115238;28;20488;-51
2023/02/22 10:13:24;;;;;;;2.43;1.97;;;;;;;8.30;100.00;100030.91;5115057;28;20484;-52
2023/02/22 10:16:01;;;;;;;9.23;3.40;;;;;;;8.45;100.00;100042.94;5115053;28;20463;-51
2023/02/22 10:18:39;;;;;;;8.37;4.47;;;;;;;8.28;100.00;100037.13;5115210;28;21147;-52
2023/02/22 10:21:37;;;;;;;8.63;5.87;;;;;;;8.36;100.00;100037.88;5115025;28;20444;-51
2023/02/22 10:24:19;;;;;;;20.67;5.50;;;;;;;8.55;100.00;100038.28;5114874;28;20932;-51
2023/02/22 10:26:45;;;;;;;5.57;4.40;;;;;;;8.41;100.00;100030.69;5103468;28;20451;-51
2023/02/22 10:29:38;;;;;;;5.47;2.93;;;;;;;8.28;100.00;100030.06;5114870;28;20448;-50
2023/02/22 10:32:10;;;;;;;12.90;5.63;;;;;;;8.38;100.00;100033.41;5103955;28;20964;-51
2023/02/22 10:34:42;;;;;;;7.67;4.60;;;;;;;8.91;100.00;100036.50;5114867;28;20463;-51
2023/02/22 10:37:24;;;;;;;9.27;5.63;;;;;;;8.79;100.00;100027.09;5114911;28;20436;-52
2023/02/22 10:39:57;;;;;;;5.93;4.27;;;;;;;9.00;100.00;100023.00;5096832;28;20436;-52
2023/02/22 10:42:26;;;;;;;15.17;4.37;;;;;;;9.10;99.51;100018.34;5114600;28;20440;-51
2023/02/22 10:44:53;;;;;;;9.50;4.63;;;;;;;9.10;99.60;100016.56;5118305;22;20495;-46
2023/02/22 10:47:20;;;;;;;15.77;6.40;;;;;;;9.03;100.00;100022.91;5053861;28;20997;-47
2023/02/22 10:49:55;;;;;;;12.40;5.67;;;;;;;9.22;100.00;100018.00;5054222;28;20532;-47
2023/02/22 10:52:30;;;;;;;7.20;4.03;;;;;;;8.99;100.00;100025.69;5052575;28;20442;-47
2023/02/22 10:54:58;;;;;;;5.57;5.07;;;;;;;9.06;100.00;100008.72;5053421;28;20843;-47
2023/02/22 10:57:43;;;;;;;11.63;6.47;;;;;;;9.40;100.00;100012.16;5053804;28;20926;-46
2023/02/22 11:00:28;;;;;;;7.60;4.87;;;;;;;9.85;99.08;100006.44;5053684;28;20446;-47
2023/02/22 11:03:03;;;;;;;9.00;6.07;;;;;;;9.83;98.75;100005.59;5045820;28;20479;-46
2023/02/22 11:05:35;;;;;;;5.53;4.80;;;;;;;9.76;99.08;100006.72;5028133;28;20823;-47
2023/02/22 11:08:24;;;;;;;6.53;5.10;;;;;;;9.75;100.00;99997.91;5053560;28;20443;-47
2023/02/22 11:10:54;;;;;;;6.53;5.40;;;;;;;9.83;99.07;99992.34;5043144;28;20544;-47
2023/02/22 11:13:33;;;;;;;6.70;5.57;;;;;;;9.86;99.54;99996.69;5053350;28;20479;-46
2023/02/22 11:16:17;;;;;;;8.30;5.10;;;;;;;10.17;98.96;99983.34;5053683;28;20835;-47
2023/02/22 11:18:46;;;;;;;12.73;5.13;;;;;;;10.10;98.15;99983.53;5053467;28;20469;-47
2023/02/22 11:21:18;;;;;;;10.47;5.80;;;;;;;10.31;98.90;99983.81;5053150;28;20965;-47
2023/02/22 11:23:45;;;;;;;13.90;5.97;;;;;;;10.47;97.95;99973.53;5053196;28;20629;-47
2023/02/22 11:26:16;;;;;;;6.43;5.10;;;;;;;10.72;97.02;99973.59;5039499;28;21032;-47
2023/02/22 11:28:49;;;;;;;8.47;7.67;;;;;;;10.72;96.92;99969.13;5053378;28;20500;-47
2023/02/22 11:31:19;;;;;;;8.27;4.60;;;;;;;10.52;98.52;99964.47;5049630;28;20495;-47
2023/02/22 11:33:57;;;;;;;7.50;5.60;;;;;;;10.49;98.42;99967.25;5046323;28;20908;-46
2023/02/22 11:37:13;;;;;;;15.17;7.97;;;;;;;10.41;98.72;99960.44;5029810;28;20462;-47
2023/02/22 11:39:42;;;;;;;9.80;6.07;;;;;;;10.51;98.67;99962.75;5018668;28;20797;-47